Terminal Aerodrome Forecast
Issued by NWS

Home | Current Version | Previous Version | Text Only | Print | Product List | Glossary On
Versions: 1 2 3 4 5 6 7 8 9 10 11 12 13 14 15 16 17 18 19 20 21 22 23 24 25 26 27 28 29 30 31 32
000
FTUS45 KGJT 270536
TAFEGE
TAF
KEGE 270536Z 2706/2806 VRB05KT P6SM -SHRA VCTS OVC070CB
     FM271000 10004KT P6SM VCSH SCT060 OVC090
     FM271900 24008KT P6SM -SHRA VCTS SCT050CB OVC070
     FM280200 14005KT P6SM VCSH SCT050 OVC070
      AMD LTD TO CLD VIS AND WIND TIL 271300=

USA.gov is the U.S. government's official web portal to all federal, state and local government web resources and services.